Time;durP1;ratioP1;P1;durP2;ratioP2;P2;SDS_P1;SDS_P2;PMS_P1;PMS_P2;Temp;Humidity;BMP_temperature;BMP_pressure;BME280_temperature;BME280_humidity;BME280_pressure;Samples;Min_cycle;Max_cycle;Signal;HPM_P1;HPM_P2
2022/10/17 04:01:33;;;;;;;5.30;1.30;;;12.10;99.90;;;;;;6216861;22;20545;-69
2022/10/17 04:04:00;;;;;;;1.38;1.38;;;12.10;99.90;;;;;;6241013;23;21062;-69
2022/10/17 04:06:27;;;;;;;2.42;1.10;;;12.10;99.90;;;;;;6242149;23;20183;-69
2022/10/17 04:08:53;;;;;;;1.43;1.40;;;12.10;99.90;;;;;;6241159;23;20186;-69
2022/10/17 04:11:21;;;;;;;1.15;1.15;;;12.10;99.90;;;;;;6240737;22;20947;-69
2022/10/17 04:13:47;;;;;;;1.65;1.65;;;12.10;99.90;;;;;;6241836;23;20233;-69
2022/10/17 04:16:16;;;;;;;2.50;2.50;;;12.00;99.90;;;;;;6243212;23;20189;-68
2022/10/17 04:18:44;;;;;;;1.23;1.23;;;12.00;99.90;;;;;;6242816;23;20222;-69
2022/10/17 04:21:12;;;;;;;1.80;1.43;;;12.00;99.90;;;;;;6241981;22;20448;-70
2022/10/17 04:23:39;;;;;;;1.42;1.42;;;12.00;99.90;;;;;;6214893;23;20423;-68
2022/10/17 04:26:06;;;;;;;1.50;1.50;;;12.00;99.90;;;;;;6241613;23;20186;-68
2022/10/17 04:28:33;;;;;;;1.95;1.85;;;12.00;99.90;;;;;;6242938;23;20183;-68
2022/10/17 04:31:02;;;;;;;1.63;1.55;;;12.00;99.90;;;;;;6242200;22;20257;-70
2022/10/17 04:33:29;;;;;;;1.75;1.75;;;12.00;99.90;;;;;;6242595;23;20240;-68
2022/10/17 04:35:59;;;;;;;1.67;1.10;;;11.90;99.90;;;;;;6242202;23;20188;-70
2022/10/17 04:38:27;;;;;;;1.48;1.48;;;11.90;99.90;;;;;;6242186;23;20207;-69
2022/10/17 04:40:54;;;;;;;1.00;1.00;;;11.90;99.90;;;;;;6242003;22;20198;-70
2022/10/17 04:43:20;;;;;;;1.65;1.55;;;11.90;99.90;;;;;;6241813;23;20696;-69
2022/10/17 04:45:47;;;;;;;1.45;1.33;;;11.90;99.90;;;;;;6242738;23;20460;-69
2022/10/17 04:48:14;;;;;;;2.83;2.63;;;11.90;99.90;;;;;;6242666;23;20281;-70
2022/10/17 04:50:40;;;;;;;1.70;1.63;;;11.90;99.90;;;;;;6240759;22;20262;-70
2022/10/17 04:53:08;;;;;;;1.00;1.00;;;11.80;99.90;;;;;;6241218;23;20178;-69
2022/10/17 04:55:38;;;;;;;1.33;1.33;;;11.80;99.90;;;;;;6241986;23;20182;-68
2022/10/17 04:58:05;;;;;;;1.25;1.25;;;11.80;99.90;;;;;;6243103;23;20213;-70
2022/10/17 05:00:31;;;;;;;3.03;1.67;;;11.80;99.90;;;;;;6242223;22;20673;-69
2022/10/17 05:02:58;;;;;;;2.00;2.00;;;11.70;99.90;;;;;;6242869;23;20167;-70
2022/10/17 05:05:25;;;;;;;1.50;1.50;;;11.70;99.90;;;;;;6241329;23;20183;-69
2022/10/17 05:07:52;;;;;;;1.75;1.75;;;11.70;99.90;;;;;;6242841;23;20180;-69
2022/10/17 05:10:20;;;;;;;1.50;1.50;;;11.70;99.90;;;;;;6241672;22;20183;-70
2022/10/17 05:12:47;;;;;;;1.83;1.83;;;11.70;99.90;;;;;;6242243;23;20193;-70
2022/10/17 05:15:14;;;;;;;1.65;1.65;;;11.70;99.90;;;;;;6243740;23;20240;-69
2022/10/17 05:17:41;;;;;;;1.52;1.52;;;11.80;99.90;;;;;;6244690;23;20182;-70
2022/10/17 05:20:08;;;;;;;1.75;1.65;;;11.70;99.90;;;;;;6244377;23;20209;-70
2022/10/17 05:22:35;;;;;;;1.10;1.10;;;11.80;99.90;;;;;;6243395;22;20199;-70
2022/10/17 05:25:02;;;;;;;1.50;1.50;;;11.70;99.90;;;;;;6243856;23;20182;-69
2022/10/17 05:27:30;;;;;;;1.08;1.08;;;11.70;99.90;;;;;;6244982;23;20178;-70
2022/10/17 05:29:57;;;;;;;1.40;1.00;;;11.70;99.90;;;;;;6243100;23;20257;-69
2022/10/17 05:32:24;;;;;;;1.42;1.42;;;11.70;99.90;;;;;;6244216;22;20230;-70
2022/10/17 05:34:51;;;;;;;1.52;1.50;;;11.80;99.90;;;;;;6243993;23;20190;-69
2022/10/17 05:37:17;;;;;;;1.15;1.15;;;11.80;99.90;;;;;;6244202;23;20179;-70
2022/10/17 05:39:44;;;;;;;1.73;1.42;;;11.80;99.90;;;;;;6241841;23;20272;-69
2022/10/17 05:42:11;;;;;;;1.90;1.80;;;11.90;99.90;;;;;;6243060;22;20199;-69
2022/10/17 05:44:40;;;;;;;1.30;1.25;;;11.90;99.90;;;;;;6243869;23;20194;-69
2022/10/17 05:47:07;;;;;;;1.70;1.60;;;11.90;99.90;;;;;;6244394;23;20182;-70
2022/10/17 05:49:33;;;;;;;1.17;1.17;;;11.90;99.90;;;;;;6244859;23;20194;-70
2022/10/17 05:52:00;;;;;;;0.90;0.90;;;11.90;99.90;;;;;;6244105;22;20198;-70
2022/10/17 05:54:27;;;;;;;1.95;1.90;;;11.90;99.90;;;;;;6243578;23;20259;-69
2022/10/17 05:56:55;;;;;;;1.40;1.30;;;12.00;99.90;;;;;;6243696;23;20179;-69
2022/10/17 05:59:21;;;;;;;2.22;2.13;;;12.00;99.90;;;;;;6253323;23;20761;-70
2022/10/17 06:01:49;;;;;;;1.88;1.88;;;12.00;99.90;;;;;;6242200;22;20210;-69
2022/10/17 06:04:16;;;;;;;2.40;2.15;;;12.00;99.90;;;;;;6242641;23;20183;-69
2022/10/17 06:06:43;;;;;;;1.35;1.35;;;12.00;99.90;;;;;;6244342;23;20585;-68
2022/10/17 06:09:10;;;;;;;1.55;1.52;;;12.10;99.90;;;;;;6243596;23;20183;-69
2022/10/17 06:11:37;;;;;;;1.73;1.70;;;12.10;99.90;;;;;;6243453;22;20502;-69
2022/10/17 06:14:04;;;;;;;1.17;1.08;;;12.10;99.90;;;;;;6243631;23;20543;-72
2022/10/17 06:16:31;;;;;;;2.40;2.03;;;12.20;99.90;;;;;;6243583;23;20461;-68
2022/10/17 06:18:59;;;;;;;1.80;1.70;;;12.30;99.90;;;;;;6244098;23;20205;-68
2022/10/17 06:21:27;;;;;;;1.15;1.15;;;12.30;99.90;;;;;;6242965;22;20535;-68
2022/10/17 06:23:54;;;;;;;1.85;1.75;;;12.30;99.90;;;;;;6243385;23;20189;-67
2022/10/17 06:26:20;;;;;;;3.03;2.55;;;12.40;99.90;;;;;;6242869;23;20185;-68
2022/10/17 06:28:47;;;;;;;2.10;2.03;;;12.40;99.90;;;;;;6243468;23;20273;-69
2022/10/17 06:31:16;;;;;;;1.67;1.67;;;12.40;99.90;;;;;;6245914;22;20229;-67
2022/10/17 06:33:43;;;;;;;2.53;2.40;;;12.40;99.90;;;;;;6247487;23;20192;-69
2022/10/17 06:36:13;;;;;;;1.90;1.80;;;12.40;99.90;;;;;;6246340;23;20202;-70
2022/10/17 06:38:40;;;;;;;2.30;2.30;;;12.50;99.90;;;;;;6248253;23;20766;-70
2022/10/17 06:41:08;;;;;;;2.23;2.13;;;12.50;99.90;;;;;;6247986;22;20204;-70
2022/10/17 06:43:35;;;;;;;2.27;2.07;;;12.50;99.90;;;;;;6249424;23;20423;-70
2022/10/17 06:46:02;;;;;;;2.17;2.07;;;12.50;99.90;;;;;;6248818;23;20429;-69
2022/10/17 06:48:29;;;;;;;2.40;2.30;;;12.60;99.90;;;;;;6253148;23;20754;-69
2022/10/17 06:50:58;;;;;;;2.37;2.27;;;12.70;99.90;;;;;;6251068;22;20449;-69
2022/10/17 06:53:29;;;;;;;3.20;2.10;;;12.70;99.90;;;;;;6251950;23;20430;-69
2022/10/17 06:56:00;;;;;;;2.50;2.37;;;12.70;99.90;;;;;;6253871;23;20429;-70
2022/10/17 06:58:26;;;;;;;1.80;1.80;;;12.80;99.90;;;;;;6245267;23;20865;-69
2022/10/17 07:00:57;;;;;;;3.80;1.77;;;12.80;99.90;;;;;;6243194;22;20449;-68
2022/10/17 07:03:24;;;;;;;1.93;1.93;;;12.90;99.90;;;;;;6240801;23;20411;-68
2022/10/17 07:05:52;;;;;;;2.17;2.07;;;13.00;99.90;;;;;;6242036;23;20422;-69
2022/10/17 07:08:18;;;;;;;2.17;2.07;;;13.00;99.90;;;;;;6243364;23;20422;-69
2022/10/17 07:10:47;;;;;;;1.90;1.90;;;13.10;99.90;;;;;;6243258;22;20956;-70
2022/10/17 07:13:14;;;;;;;1.93;1.83;;;13.10;99.90;;;;;;6242702;23;21115;-70
2022/10/17 07:15:42;;;;;;;1.83;1.80;;;13.20;99.90;;;;;;6242299;23;20426;-70
2022/10/17 07:18:09;;;;;;;1.80;1.80;;;13.30;99.90;;;;;;6243009;23;20738;-70
2022/10/17 07:20:36;;;;;;;12.73;2.73;;;13.30;99.90;;;;;;6242274;22;20457;-71
2022/10/17 07:23:03;;;;;;;2.80;2.70;;;13.50;99.90;;;;;;6242018;23;20513;-70
2022/10/17 07:25:30;;;;;;;2.17;2.10;;;13.60;99.90;;;;;;6242336;23;20426;-68
2022/10/17 07:27:59;;;;;;;1.80;1.70;;;13.70;99.90;;;;;;6241872;23;20411;-70
2022/10/17 07:30:26;;;;;;;2.17;2.07;;;13.90;99.90;;;;;;6242640;22;20839;-69
2022/10/17 07:32:53;;;;;;;2.87;2.67;;;14.00;99.90;;;;;;6240176;23;20423;-71
2022/10/17 07:35:21;;;;;;;2.43;2.33;;;14.10;99.90;;;;;;6244076;23;20434;-70
2022/10/17 07:37:48;;;;;;;2.60;2.50;;;14.20;99.90;;;;;;6245171;23;20437;-69
2022/10/17 07:40:16;;;;;;;1.93;1.83;;;14.40;99.90;;;;;;6244358;22;20448;-69
2022/10/17 07:42:43;;;;;;;2.30;2.20;;;14.50;99.90;;;;;;6245204;23;21083;-69
2022/10/17 07:45:17;;;;;;;1.90;1.90;;;14.50;99.90;;;;;;6243558;23;20423;-69
2022/10/17 07:47:44;;;;;;;2.53;2.43;;;14.50;99.90;;;;;;6245606;23;20419;-71
2022/10/17 07:50:11;;;;;;;1.97;1.87;;;14.60;99.90;;;;;;6244187;23;20419;-68
2022/10/17 07:52:38;;;;;;;1.47;1.47;;;14.60;99.90;;;;;;6244439;22;20455;-69
2022/10/17 07:55:07;;;;;;;1.60;1.60;;;14.60;99.90;;;;;;6245151;23;21155;-70
2022/10/17 07:57:34;;;;;;;2.07;1.97;;;14.60;99.90;;;;;;6246503;23;20419;-71
2022/10/17 08:00:02;;;;;;;1.30;1.30;;;14.70;99.90;;;;;;6245629;23;20513;-69
2022/10/17 08:02:30;;;;;;;1.83;1.83;;;14.70;99.90;;;;;;6245391;22;21015;-70
2022/10/17 08:04:57;;;;;;;1.67;1.67;;;14.70;99.90;;;;;;6243821;23;20455;-70
2022/10/17 08:07:25;;;;;;;1.13;1.13;;;14.80;99.90;;;;;;6243646;23;20851;-71
2022/10/17 08:09:52;;;;;;;1.63;1.57;;;14.80;99.90;;;;;;6245985;23;20493;-71
2022/10/17 08:12:19;;;;;;;1.90;1.87;;;14.90;99.90;;;;;;6245859;22;20503;-67
2022/10/17 08:14:47;;;;;;;1.27;1.27;;;15.10;99.90;;;;;;6245735;23;20514;-69
2022/10/17 08:17:14;;;;;;;1.23;1.23;;;15.20;99.90;;;;;;6245884;23;20429;-69
2022/10/17 08:19:42;;;;;;;2.00;1.03;;;15.40;99.90;;;;;;6244986;23;20505;-68
2022/10/17 08:22:10;;;;;;;1.83;1.57;;;15.50;99.90;;;;;;6244271;22;20464;-69
2022/10/17 08:24:37;;;;;;;1.87;1.70;;;15.80;99.90;;;;;;6244515;23;20511;-69
2022/10/17 08:27:10;;;;;;;0.97;0.97;;;16.00;99.90;;;;;;6244441;23;20507;-70
2022/10/17 08:29:37;;;;;;;1.50;1.50;;;16.10;99.90;;;;;;6245277;23;20965;-70
2022/10/17 08:32:05;;;;;;;1.23;1.00;;;16.20;99.90;;;;;;6243970;22;20472;-69
2022/10/17 08:34:32;;;;;;;1.00;1.00;;;16.30;99.90;;;;;;6245258;23;20436;-69
2022/10/17 08:37:01;;;;;;;1.10;1.10;;;16.40;99.90;;;;;;6245537;23;20815;-69
2022/10/17 08:39:28;;;;;;;0.97;0.97;;;16.50;99.90;;;;;;6244851;23;20441;-69
2022/10/17 08:42:09;;;;;;;2.07;1.80;;;16.60;99.90;;;;;;6243921;22;20496;-70
2022/10/17 08:44:46;;;;;;;1.33;1.33;;;16.60;99.90;;;;;;6243393;23;20414;-69
2022/10/17 08:47:16;;;;;;;1.10;1.10;;;16.70;99.90;;;;;;6244696;23;20782;-69
2022/10/17 08:49:51;;;;;;;1.00;1.00;;;16.70;99.90;;;;;;6245492;23;20677;-70
2022/10/17 08:52:29;;;;;;;3.80;1.33;;;16.80;99.90;;;;;;6246034;22;20944;-69
2022/10/17 08:54:56;;;;;;;0.97;0.97;;;16.90;99.90;;;;;;6246152;23;20472;-69
2022/10/17 08:57:23;;;;;;;1.20;1.20;;;17.00;99.90;;;;;;6246550;23;20420;-70
2022/10/17 08:59:53;;;;;;;0.93;0.93;;;17.10;99.90;;;;;;6246059;23;20916;-73
2022/10/17 09:02:44;;;;;;;1.37;1.37;;;17.10;99.90;;;;;;6246370;22;20481;-73
2022/10/17 09:05:41;;;;;;;1.23;1.23;;;17.10;99.90;;;;;;6246752;23;20409;-73
2022/10/17 09:08:26;;;;;;;1.40;1.30;;;17.20;99.90;;;;;;6247275;23;20433;-70
2022/10/17 09:10:58;;;;;;;3.97;1.47;;;17.30;99.90;;;;;;6245684;22;20442;-70
2022/10/17 09:13:40;;;;;;;1.03;1.03;;;17.30;99.90;;;;;;6245579;23;20547;-69
2022/10/17 09:16:28;;;;;;;1.07;1.07;;;17.30;99.90;;;;;;6245980;23;20406;-70
2022/10/17 09:19:01;;;;;;;1.43;1.43;;;17.40;99.90;;;;;;6243261;23;20425;-69
2022/10/17 09:21:39;;;;;;;1.70;1.60;;;17.40;99.90;;;;;;6246269;22;20449;-69
2022/10/17 09:24:13;;;;;;;1.17;1.17;;;17.50;99.90;;;;;;6246078;23;20436;-70
2022/10/17 09:26:41;;;;;;;1.43;1.43;;;17.60;99.90;;;;;;6244577;23;20409;-68
2022/10/17 09:29:19;;;;;;;1.20;1.20;;;17.70;99.90;;;;;;6244981;23;20428;-67
2022/10/17 09:31:53;;;;;;;0.90;0.90;;;17.70;99.90;;;;;;6244606;22;20442;-69
2022/10/17 09:34:20;;;;;;;1.47;1.37;;;17.80;99.90;;;;;;6244725;23;20706;-69
2022/10/17 09:36:46;;;;;;;0.87;0.87;;;17.80;99.90;;;;;;6244498;23;20435;-68
2022/10/17 09:39:18;;;;;;;1.40;1.30;;;17.90;99.90;;;;;;6244234;23;20429;-70
2022/10/17 09:41:50;;;;;;;1.13;1.13;;;18.00;99.90;;;;;;6243404;22;20450;-69
2022/10/17 09:44:21;;;;;;;1.93;1.93;;;18.10;99.90;;;;;;6244402;23;20411;-69
2022/10/17 09:47:02;;;;;;;0.93;0.93;;;18.20;99.90;;;;;;6244581;23;20407;-69
2022/10/17 09:49:32;;;;;;;0.93;0.93;;;18.30;99.90;;;;;;6244527;23;20407;-69
2022/10/17 09:52:00;;;;;;;1.03;1.00;;;18.30;99.90;;;;;;6243583;22;20449;-69
2022/10/17 09:54:34;;;;;;;1.10;1.10;;;18.40;99.90;;;;;;6243635;23;20890;-69
2022/10/17 09:57:03;;;;;;;1.00;1.00;;;18.50;99.90;;;;;;6243593;23;20411;-70
2022/10/17 09:59:32;;;;;;;3.60;1.50;;;18.70;99.90;;;;;;6244027;23;20919;-70
2022/10/17 10:02:09;;;;;;;1.10;1.10;;;18.80;99.90;;;;;;6243496;22;20838;-70
2022/10/17 10:04:36;;;;;;;1.50;1.50;;;18.90;99.90;;;;;;6243564;23;20727;-70
2022/10/17 10:07:05;;;;;;;0.90;0.90;;;19.00;99.90;;;;;;6243248;23;20454;-70
2022/10/17 10:09:35;;;;;;;1.20;1.20;;;19.10;99.90;;;;;;6243837;23;20933;-70
2022/10/17 10:12:07;;;;;;;0.90;0.90;;;19.20;99.90;;;;;;6243828;22;20447;-69
2022/10/17 10:14:36;;;;;;;1.20;1.20;;;19.30;99.90;;;;;;6244503;23;20422;-68
2022/10/17 10:17:05;;;;;;;1.10;1.10;;;19.50;99.90;;;;;;6244898;23;20523;-71
2022/10/17 10:19:33;;;;;;;1.03;1.03;;;19.60;99.90;;;;;;6243878;23;20423;-69
2022/10/17 10:22:01;;;;;;;6.40;1.40;;;19.70;99.90;;;;;;6242081;22;20472;-71
2022/10/17 10:24:28;;;;;;;1.07;1.07;;;19.80;99.90;;;;;;6243484;23;20693;-68
2022/10/17 10:26:58;;;;;;;1.23;1.00;;;19.90;99.90;;;;;;6243013;23;20425;-68
2022/10/17 10:29:31;;;;;;;1.90;1.83;;;19.90;99.90;;;;;;6243397;23;20417;-69
2022/10/17 10:32:07;;;;;;;1.03;1.03;;;19.90;99.90;;;;;;6243236;22;20434;-69
2022/10/17 10:34:36;;;;;;;1.13;1.13;;;20.00;99.90;;;;;;6242666;23;20412;-70
2022/10/17 10:37:05;;;;;;;0.90;0.90;;;20.00;99.90;;;;;;6242471;23;20427;-70
2022/10/17 10:39:36;;;;;;;1.00;1.00;;;20.10;99.90;;;;;;6243864;23;20425;-69
2022/10/17 10:42:08;;;;;;;1.13;1.13;;;20.10;99.90;;;;;;6243096;22;20453;-69
2022/10/17 10:44:38;;;;;;;1.23;1.23;;;20.20;99.90;;;;;;6243638;23;20700;-68
2022/10/17 10:47:24;;;;;;;1.30;1.30;;;20.30;99.90;;;;;;6242813;23;20425;-69
2022/10/17 10:49:53;;;;;;;1.13;1.10;;;20.40;99.90;;;;;;6240312;23;20872;-70
2022/10/17 10:52:29;;;;;;;0.97;0.97;;;20.50;99.90;;;;;;6241324;22;20438;-70
2022/10/17 10:55:06;;;;;;;1.20;1.20;;;20.50;99.90;;;;;;6241852;23;20409;-70
2022/10/17 10:57:36;;;;;;;1.50;1.50;;;20.60;99.90;;;;;;6243373;23;20781;-69
2022/10/17 11:00:12;;;;;;;1.10;1.10;;;20.60;99.90;;;;;;6242659;23;20421;-69
2022/10/17 11:02:46;;;;;;;1.37;1.27;;;20.60;99.90;;;;;;6212607;23;20449;-69
2022/10/17 11:05:17;;;;;;;2.20;0.97;;;20.60;99.90;;;;;;6210597;23;20438;-70
2022/10/17 11:07:51;;;;;;;1.43;1.33;;;20.60;99.90;;;;;;6213318;23;20413;-69
2022/10/17 11:10:22;;;;;;;1.37;1.00;;;20.70;99.90;;;;;;6212850;23;20465;-70
2022/10/17 11:12:57;;;;;;;1.53;1.47;;;20.70;99.90;;;;;;6212532;23;20744;-70
2022/10/17 11:15:31;;;;;;;1.40;1.30;;;20.70;99.90;;;;;;6212595;23;20421;-69
2022/10/17 11:18:00;;;;;;;1.13;1.13;;;20.70;99.90;;;;;;6211876;23;20411;-70
2022/10/17 11:20:34;;;;;;;1.30;1.30;;;20.70;99.90;;;;;;6222281;23;20449;-68
2022/10/17 11:23:18;;;;;;;1.13;1.13;;;20.80;99.90;;;;;;6213235;23;20417;-69
2022/10/17 11:25:45;;;;;;;1.90;1.80;;;20.80;99.90;;;;;;6212350;23;20502;-70
2022/10/17 11:28:15;;;;;;;1.43;1.30;;;20.80;99.90;;;;;;6212621;23;20427;-69
2022/10/17 11:30:47;;;;;;;2.20;1.70;;;20.80;99.90;;;;;;6212692;23;20439;-70
2022/10/17 11:33:22;;;;;;;1.30;1.30;;;20.90;99.90;;;;;;6211171;23;20851;-71
2022/10/17 11:35:53;;;;;;;1.57;1.57;;;20.90;99.90;;;;;;6211678;23;20414;-70
2022/10/17 11:38:26;;;;;;;1.50;1.40;;;21.00;99.90;;;;;;6222526;23;20404;-69
2022/10/17 11:40:56;;;;;;;1.07;1.07;;;21.10;99.90;;;;;;6212082;23;20455;-69
2022/10/17 11:43:30;;;;;;;1.13;1.13;;;21.20;99.90;;;;;;6212426;23;20407;-69
2022/10/17 11:46:01;;;;;;;1.10;1.10;;;21.20;99.90;;;;;;6211113;23;20898;-69
2022/10/17 11:48:31;;;;;;;1.07;1.07;;;21.20;99.90;;;;;;6212441;23;20427;-71
2022/10/17 11:51:04;;;;;;;2.20;1.37;;;21.20;99.90;;;;;;6211708;23;20442;-70
2022/10/17 11:53:41;;;;;;;1.23;1.23;;;21.20;99.90;;;;;;6212512;23;20769;-70
2022/10/17 11:56:11;;;;;;;1.30;1.30;;;21.10;99.90;;;;;;6212000;23;20415;-70
2022/10/17 11:58:43;;;;;;;1.40;1.40;;;21.10;99.90;;;;;;6212772;23;20973;-71
2022/10/17 12:01:22;;;;;;;1.07;1.07;;;21.10;99.90;;;;;;6222290;22;20451;-70
2022/10/17 12:04:06;;;;;;;1.23;1.23;;;21.10;99.90;;;;;;6242467;23;20414;-70
2022/10/17 12:06:45;;;;;;;1.17;1.10;;;21.00;99.90;;;;;;6241748;23;20413;-70
2022/10/17 12:09:20;;;;;;;1.37;1.37;;;21.00;99.90;;;;;;6242830;23;20406;-68
2022/10/17 12:11:52;;;;;;;0.83;0.83;;;21.00;99.90;;;;;;6241501;22;20442;-70
2022/10/17 12:14:39;;;;;;;1.20;1.10;;;21.00;99.90;;;;;;6240689;23;20407;-70
2022/10/17 12:17:20;;;;;;;1.13;1.13;;;20.90;99.90;;;;;;6242330;23;20433;-70
2022/10/17 12:19:47;;;;;;;1.50;1.50;;;20.90;99.90;;;;;;6242762;23;20402;-70
2022/10/17 12:22:23;;;;;;;1.50;1.13;;;20.80;99.90;;;;;;6241288;22;20456;-70
2022/10/17 12:24:56;;;;;;;1.43;1.43;;;20.70;99.90;;;;;;6244249;23;20880;-70
2022/10/17 12:27:41;;;;;;;1.07;1.07;;;20.70;99.90;;;;;;6245993;23;20420;-70
2022/10/17 12:30:19;;;;;;;1.57;1.57;;;20.60;99.90;;;;;;6243820;23;20467;-69
2022/10/17 12:32:59;;;;;;;1.50;1.37;;;20.50;99.90;;;;;;6245490;23;20436;-70
2022/10/17 12:35:27;;;;;;;1.67;1.67;;;20.50;99.90;;;;;;6245767;23;20428;-70
2022/10/17 12:38:23;;;;;;;2.57;1.00;;;20.50;99.90;;;;;;6246369;23;20417;-70
2022/10/17 12:40:55;;;;;;;1.40;1.40;;;20.50;99.90;;;;;;6245581;22;20449;-69
2022/10/17 12:43:50;;;;;;;1.70;1.70;;;20.60;99.90;;;;;;6245383;23;20717;-70
2022/10/17 12:46:45;;;;;;;1.77;1.70;;;20.70;99.90;;;;;;6245640;23;20459;-69
2022/10/17 12:49:41;;;;;;;3.60;2.70;;;20.80;99.90;;;;;;6246591;23;20406;-69
2022/10/17 12:52:28;;;;;;;1.30;1.30;;;20.90;99.90;;;;;;6246054;22;20540;-69
2022/10/17 12:55:05;;;;;;;1.80;1.80;;;21.00;99.90;;;;;;6246465;23;20408;-69
2022/10/17 12:57:37;;;;;;;1.30;1.30;;;21.00;99.90;;;;;;6246309;23;20401;-69
2022/10/17 13:00:14;;;;;;;2.00;1.20;;;21.00;99.90;;;;;;6246936;23;20402;-69
2022/10/17 13:02:42;;;;;;;1.50;1.50;;;21.00;99.90;;;;;;6246572;23;20429;-68
2022/10/17 13:05:16;;;;;;;1.40;1.40;;;21.00;99.90;;;;;;6247127;23;20422;-68
2022/10/17 13:07:45;;;;;;;1.67;1.67;;;21.00;99.90;;;;;;6246541;23;20406;-70
2022/10/17 13:10:23;;;;;;;1.33;1.33;;;20.90;99.90;;;;;;6244784;23;20449;-69
2022/10/17 13:12:53;;;;;;;1.33;1.33;;;20.80;99.90;;;;;;6246034;23;20400;-69
2022/10/17 13:15:20;;;;;;;1.53;1.43;;;20.70;99.90;;;;;;6245865;23;20496;-69
2022/10/17 13:17:57;;;;;;;1.27;1.27;;;20.70;99.90;;;;;;6245252;23;20528;-68
2022/10/17 13:20:27;;;;;;;6.20;1.50;;;20.50;99.90;;;;;;6245214;22;20660;-70
2022/10/17 13:22:55;;;;;;;1.07;1.07;;;20.50;99.90;;;;;;6245758;23;20507;-69
2022/10/17 13:25:22;;;;;;;1.20;1.20;;;20.50;99.90;;;;;;6244468;23;20421;-69
2022/10/17 13:27:50;;;;;;;1.90;1.50;;;20.50;99.90;;;;;;6246180;23;20444;-70
2022/10/17 13:30:26;;;;;;;1.07;1.07;;;20.50;99.90;;;;;;6245229;22;20736;-70
2022/10/17 13:32:53;;;;;;;0.93;0.93;;;20.50;99.90;;;;;;6246232;23;20431;-69
2022/10/17 13:35:27;;;;;;;1.60;1.60;;;20.40;99.90;;;;;;6243586;23;20891;-69
2022/10/17 13:37:55;;;;;;;1.40;1.40;;;20.30;99.90;;;;;;6243356;23;20894;-69
2022/10/17 13:40:25;;;;;;;4.43;1.57;;;20.30;99.90;;;;;;6243627;22;20424;-69
2022/10/17 13:42:53;;;;;;;2.10;2.10;;;20.30;99.90;;;;;;6244130;23;20448;-69
2022/10/17 13:45:27;;;;;;;1.60;1.60;;;20.30;99.90;;;;;;6243767;23;20420;-70
2022/10/17 13:47:54;;;;;;;2.53;1.73;;;20.30;99.90;;;;;;6242755;23;20844;-70
2022/10/17 13:50:31;;;;;;;5.03;1.50;;;20.30;99.90;;;;;;6243408;22;20443;-69
2022/10/17 13:53:16;;;;;;;1.90;1.83;;;20.20;99.90;;;;;;6243862;23;20673;-70
2022/10/17 13:55:58;;;;;;;1.60;1.60;;;20.20;99.90;;;;;;6243195;23;20514;-70
2022/10/17 13:58:26;;;;;;;1.63;1.63;;;20.10;99.90;;;;;;6244147;23;20473;-69
2022/10/17 14:00:53;;;;;;;9.43;2.53;;;20.10;99.90;;;;;;6242695;22;20459;-69
2022/10/17 14:03:21;;;;;;;2.27;1.37;;;20.00;99.90;;;;;;6242044;23;20937;-70
2022/10/17 14:06:09;;;;;;;2.27;2.17;;;20.00;99.90;;;;;;6243336;23;20421;-68
2022/10/17 14:08:37;;;;;;;2.50;2.40;;;20.00;99.90;;;;;;6242626;23;20963;-70
2022/10/17 14:11:14;;;;;;;2.00;2.00;;;20.00;99.90;;;;;;6243055;22;20441;-70
2022/10/17 14:13:43;;;;;;;2.30;2.30;;;19.90;99.90;;;;;;6244056;23;21067;-70
2022/10/17 14:16:09;;;;;;;2.37;2.27;;;19.90;99.90;;;;;;6243659;23;20423;-70
2022/10/17 14:18:39;;;;;;;2.00;1.90;;;19.90;99.90;;;;;;6244304;23;20420;-69
2022/10/17 14:21:07;;;;;;;2.03;2.03;;;19.90;99.90;;;;;;6242361;22;20555;-70
2022/10/17 14:23:39;;;;;;;6.23;2.30;;;19.80;99.90;;;;;;6243714;23;20423;-69
2022/10/17 14:26:12;;;;;;;2.50;2.50;;;19.80;99.90;;;;;;6243406;23;20715;-69
2022/10/17 14:28:41;;;;;;;1.97;1.97;;;19.70;99.90;;;;;;6244240;23;20408;-69
2022/10/17 14:31:23;;;;;;;2.23;2.13;;;19.70;99.90;;;;;;6243802;22;20443;-69
2022/10/17 14:33:52;;;;;;;1.67;1.67;;;19.70;99.90;;;;;;6243777;23;20411;-70
2022/10/17 14:36:21;;;;;;;3.70;3.40;;;19.60;99.90;;;;;;6242807;23;20423;-69
2022/10/17 14:38:51;;;;;;;7.00;2.53;;;19.60;99.90;;;;;;6241461;23;20790;-70
2022/10/17 14:41:24;;;;;;;3.23;2.83;;;19.60;99.90;;;;;;6242006;22;20451;-70
2022/10/17 14:43:56;;;;;;;2.13;2.13;;;19.60;99.90;;;;;;6243008;23;20411;-69
2022/10/17 14:46:23;;;;;;;2.50;2.40;;;19.60;99.90;;;;;;6243124;23;20907;-68
2022/10/17 14:49:01;;;;;;;2.90;2.70;;;19.60;99.90;;;;;;6243720;23;20430;-68
2022/10/17 14:51:30;;;;;;;3.20;3.10;;;19.50;99.90;;;;;;6242708;22;20451;-69
2022/10/17 14:54:05;;;;;;;2.77;2.60;;;19.60;99.90;;;;;;6241052;23;20484;-70
2022/10/17 14:56:39;;;;;;;3.33;3.23;;;19.50;99.90;;;;;;6241453;23;20616;-69
2022/10/17 14:59:06;;;;;;;2.80;2.70;;;19.50;99.90;;;;;;6243151;23;20415;-69
2022/10/17 15:01:34;;;;;;;3.60;3.50;;;19.50;99.90;;;;;;6242488;22;20542;-69
2022/10/17 15:04:01;;;;;;;2.13;2.13;;;19.50;99.90;;;;;;6243014;23;20431;-70
2022/10/17 15:06:30;;;;;;;6.93;3.43;;;19.50;99.90;;;;;;6242032;23;20439;-68
2022/10/17 15:08:57;;;;;;;2.43;2.43;;;19.50;99.90;;;;;;6243022;23;20427;-69
2022/10/17 15:11:24;;;;;;;2.27;2.20;;;19.50;99.90;;;;;;6240716;22;20443;-69
2022/10/17 15:13:51;;;;;;;2.30;2.27;;;19.50;99.90;;;;;;6242375;23;20415;-70
2022/10/17 15:16:20;;;;;;;2.30;2.30;;;19.40;99.90;;;;;;6242388;23;20423;-69
2022/10/17 15:18:48;;;;;;;3.10;3.00;;;19.30;99.90;;;;;;6242274;23;20431;-70
2022/10/17 15:21:16;;;;;;;2.73;2.63;;;19.30;99.90;;;;;;6242249;22;20442;-70
2022/10/17 15:23:44;;;;;;;2.23;2.23;;;19.30;99.90;;;;;;6241978;23;20438;-69
2022/10/17 15:26:16;;;;;;;2.57;2.47;;;19.20;99.90;;;;;;6241792;23;20423;-69
2022/10/17 15:28:43;;;;;;;2.53;2.33;;;19.20;99.90;;;;;;6242909;23;20422;-69
2022/10/17 15:31:16;;;;;;;1.90;1.90;;;19.10;99.90;;;;;;6241809;22;20447;-70
2022/10/17 15:33:43;;;;;;;2.87;2.77;;;19.00;99.90;;;;;;6240162;23;20431;-69
2022/10/17 15:36:22;;;;;;;3.10;2.93;;;18.90;99.90;;;;;;6241432;23;20442;-69
2022/10/17 15:38:52;;;;;;;5.60;3.20;;;18.90;99.90;;;;;;6241933;23;20493;-69
2022/10/17 15:41:18;;;;;;;3.33;3.13;;;18.80;99.90;;;;;;6241814;22;20442;-69
2022/10/17 15:43:46;;;;;;;3.80;3.57;;;18.70;99.90;;;;;;6242174;23;20952;-70
2022/10/17 15:46:16;;;;;;;2.90;2.80;;;18.70;99.90;;;;;;6242027;23;20896;-69
2022/10/17 15:48:43;;;;;;;2.50;2.50;;;18.70;99.90;;;;;;6242412;23;20417;-68
2022/10/17 15:51:10;;;;;;;2.60;2.50;;;18.60;99.90;;;;;;6241047;22;20951;-69
2022/10/17 15:53:37;;;;;;;2.90;2.80;;;18.50;99.90;;;;;;6241514;23;20418;-69
2022/10/17 15:56:06;;;;;;;2.87;2.77;;;18.40;99.90;;;;;;6242007;23;20424;-69
2022/10/17 15:58:37;;;;;;;2.67;2.63;;;18.40;99.90;;;;;;6241179;23;20918;-69
2022/10/17 16:01:05;;;;;;;3.70;3.50;;;18.40;99.90;;;;;;6241922;22;20445;-68
2022/10/17 16:03:32;;;;;;;3.40;3.20;;;18.30;99.90;;;;;;6241886;23;20513;-69
2022/10/17 16:05:59;;;;;;;3.17;2.97;;;18.20;99.90;;;;;;6241322;23;20421;-67
2022/10/17 16:08:25;;;;;;;3.87;3.57;;;18.20;99.90;;;;;;6241872;23;20422;-68
2022/10/17 16:10:53;;;;;;;6.73;2.80;;;18.10;99.90;;;;;;6241578;22;20739;-71
2022/10/17 16:13:23;;;;;;;3.30;3.20;;;18.10;99.90;;;;;;6242083;23;20444;-68
2022/10/17 16:15:51;;;;;;;2.97;2.77;;;18.00;99.90;;;;;;6241779;23;20417;-69
2022/10/17 16:18:18;;;;;;;3.30;3.10;;;18.00;99.90;;;;;;6241642;23;20923;-67
2022/10/17 16:20:46;;;;;;;3.10;2.90;;;18.00;99.90;;;;;;6242176;22;20557;-68
2022/10/17 16:23:14;;;;;;;3.73;3.43;;;17.90;99.90;;;;;;6241751;23;20446;-69
2022/10/17 16:25:41;;;;;;;3.20;3.10;;;17.90;99.90;;;;;;6241825;23;20427;-69
2022/10/17 16:28:08;;;;;;;3.50;3.40;;;17.90;99.90;;;;;;6242197;23;20533;-69
2022/10/17 16:30:43;;;;;;;3.87;3.60;;;17.80;99.90;;;;;;6241987;22;20434;-69
2022/10/17 16:33:10;;;;;;;4.27;3.97;;;17.80;99.90;;;;;;6242496;23;20460;-69
2022/10/17 16:35:37;;;;;;;3.57;3.37;;;17.70;99.90;;;;;;6241668;23;20423;-69
2022/10/17 16:38:04;;;;;;;4.57;4.30;;;17.70;99.90;;;;;;6242915;23;20471;-69
2022/10/17 16:40:31;;;;;;;3.97;3.57;;;17.70;99.90;;;;;;6240936;22;20934;-69
2022/10/17 16:42:58;;;;;;;3.37;3.27;;;17.70;99.90;;;;;;6240988;23;20450;-69
2022/10/17 16:45:25;;;;;;;4.87;4.47;;;17.70;99.90;;;;;;6242251;23;20421;-69
2022/10/17 16:47:53;;;;;;;3.73;3.57;;;17.60;99.90;;;;;;6240802;23;20417;-69
2022/10/17 16:50:19;;;;;;;3.83;3.63;;;17.60;99.90;;;;;;6240906;22;20725;-69
2022/10/17 16:52:46;;;;;;;5.30;5.10;;;17.60;99.90;;;;;;6242010;23;20879;-68
2022/10/17 16:55:13;;;;;;;3.80;3.63;;;17.60;99.90;;;;;;6241456;23;20420;-69
2022/10/17 16:57:39;;;;;;;4.40;4.13;;;17.50;99.90;;;;;;6241505;23;20426;-69
2022/10/17 17:00:08;;;;;;;4.90;4.60;;;17.50;99.90;;;;;;6241005;23;20453;-68
2022/10/17 17:02:34;;;;;;;5.53;5.03;;;17.50;99.90;;;;;;6238583;22;20461;-68
2022/10/17 17:05:03;;;;;;;4.07;3.87;;;17.40;99.90;;;;;;6242022;23;20422;-69